Cambridgeport, Massachusetts
Current Conditions -  °F | °C
As of 12:54 PM on Sunday 21 Dec 2014 (Local Time) from KBOS Reporting Station
Light Snow Light Snow  
Wind Chill: 26°   Ceiling: 1200
Heat Index: 32°   Visibility: 9mi
Dew Point: 26°   Wind: 7mph
Humidity: 79%   Direction: 360°N
Pressure: 30.31"   Gusts: NA
Location:  42.3631°N, 71.1033°W
Report Text: KBOS 211754Z 36006KT 9SM -SN OVC012 00/M03 A3031 RMK AO2 SLP261 P0000 60000 T00001033 10006 21011 56012
Loading
Personal Weather Stations






























Interactive Weather Map New forecast layout! Learn more

10-Day Weather Forecast

Advertisements
Track Severe Weather on mobile